Terminal Aerodrome Forecast
Issued by NWS

Home | Current Version | Previous Version | Text Only | Print | Product List | Glossary On
Versions: 1 2 3 4 5 6 7 8 9 10 11 12
000
FTUS42 TJSJ 282345
TAFNCM
TAF
TNCM 282345Z 2900/2924 08010KT P6SM SCT020 SCT040
     FM290600 10010KT P6SM VCTS SCT018CB BKN030
     FM291400 12012KT P6SM SHRA VCTS SCT018CB BKN040 OVC090=

USA.gov is the U.S. government's official web portal to all federal, state and local government web resources and services.